Time;durP1;ratioP1;P1;durP2;ratioP2;P2;SDS_P1;SDS_P2;PMS_P1;PMS_P2;Temp;Humidity;BMP_temperature;BMP_pressure;BME280_temperature;BME280_humidity;BME280_pressure;Samples;Min_cycle;Max_cycle;Signal;HPM_P1;HPM_P2
2021/11/01 00:00:30;;;;;;;6.65;5.22;;;;;;;;;;5043581;28;20246;-90
2021/11/01 00:02:57;;;;;;;6.20;5.10;;;;;;;;;;5048948;28;20025;-91
2021/11/01 00:05:25;;;;;;;6.35;5.10;;;;;;;;;;5039769;28;20087;-90
2021/11/01 00:07:52;;;;;;;7.90;5.22;;;;;;;;;;5052706;28;20061;-92
2021/11/01 00:10:18;;;;;;;6.88;4.90;;;;;;;;;;5042765;28;20037;-92
2021/11/01 00:12:45;;;;;;;7.60;5.47;;;;;;;;;;5028604;28;20511;-91
2021/11/01 00:15:12;;;;;;;6.65;5.28;;;;;;;;;;5048960;28;20022;-92
2021/11/01 00:17:39;;;;;;;6.95;5.35;;;;;;;;;;5030965;28;20064;-89
2021/11/01 00:20:06;;;;;;;6.78;5.28;;;;;;;;;;5044088;28;20048;-89
2021/11/01 00:22:33;;;;;;;7.20;5.60;;;;;;;;;;5032363;28;20033;-91
2021/11/01 00:25:02;;;;;;;6.95;5.50;;;;;;;;;;5044804;28;20037;-91
2021/11/01 00:27:29;;;;;;;8.00;5.93;;;;;;;;;;5047188;28;20024;-91
2021/11/01 00:29:55;;;;;;;7.60;5.43;;;;;;;;;;5027844;28;20033;-92
2021/11/01 00:32:22;;;;;;;7.53;5.25;;;;;;;;;;5028767;28;20052;-91
2021/11/01 00:34:48;;;;;;;7.47;5.70;;;;;;;;;;5030619;28;20041;-91
2021/11/01 00:37:14;;;;;;;8.50;5.18;;;;;;;;;;5048932;28;20025;-92
2021/11/01 00:39:41;;;;;;;7.38;5.53;;;;;;;;;;5050204;28;20025;-91
2021/11/01 00:42:08;;;;;;;8.25;5.68;;;;;;;;;;5045881;28;20041;-90
2021/11/01 00:44:34;;;;;;;6.80;5.63;;;;;;;;;;5040487;28;20029;-92
2021/11/01 00:47:00;;;;;;;7.50;5.97;;;;;;;;;;5045823;28;20021;-90
2021/11/01 00:49:27;;;;;;;7.22;5.40;;;;;;;;;;5056024;28;20041;-91
2021/11/01 00:51:55;;;;;;;8.75;6.05;;;;;;;;;;5039322;28;20044;-91
2021/11/01 00:54:22;;;;;;;8.32;6.05;;;;;;;;;;5021998;28;20033;-88
2021/11/01 00:56:48;;;;;;;7.03;5.78;;;;;;;;;;5050127;28;20041;-90
2021/11/01 00:59:15;;;;;;;8.23;5.57;;;;;;;;;;5049309;28;20043;-92
2021/11/01 01:01:41;;;;;;;9.15;5.80;;;;;;;;;;5046813;28;20492;-92
2021/11/01 01:04:08;;;;;;;8.90;6.07;;;;;;;;;;5048290;28;20022;-92
2021/11/01 01:06:34;;;;;;;8.60;5.68;;;;;;;;;;5053487;28;20021;-91
2021/11/01 01:09:01;;;;;;;9.23;5.78;;;;;;;;;;5060149;28;20037;-92
2021/11/01 01:11:27;;;;;;;7.75;5.90;;;;;;;;;;5048046;28;20476;-93
2021/11/01 01:13:54;;;;;;;7.47;5.78;;;;;;;;;;5050497;28;20029;-92
2021/11/01 01:16:30;;;;;;;8.73;6.00;;;;;;;;;;5048718;28;20033;-91
2021/11/01 01:18:58;;;;;;;9.32;6.45;;;;;;;;;;5043795;28;20453;-91
2021/11/01 01:24:11;;;;;;;9.68;6.03;;;;;;;;;;5046130;28;20507;-92
2021/11/01 01:26:38;;;;;;;7.93;5.68;;;;;;;;;;5030916;28;20032;-92
2021/11/01 01:29:05;;;;;;;8.07;5.70;;;;;;;;;;5048859;28;20037;-83
2021/11/01 01:31:32;;;;;;;6.70;5.78;;;;;;;;;;5052190;28;20025;-91
2021/11/01 01:33:59;;;;;;;8.32;5.82;;;;;;;;;;5046192;28;20049;-91
2021/11/01 01:36:25;;;;;;;8.77;5.80;;;;;;;;;;5043620;28;20355;-89
2021/11/01 01:38:52;;;;;;;7.70;5.22;;;;;;;;;;5010918;28;20017;-90
2021/11/01 01:41:21;;;;;;;10.02;6.60;;;;;;;;;;5045117;28;20033;-89
2021/11/01 01:43:49;;;;;;;8.65;6.13;;;;;;;;;;5058171;28;20033;-90
2021/11/01 01:46:15;;;;;;;6.60;5.15;;;;;;;;;;5054600;28;20029;-90
2021/11/01 01:48:42;;;;;;;9.40;6.47;;;;;;;;;;5049491;28;20037;-91
2021/11/01 01:51:09;;;;;;;8.15;5.70;;;;;;;;;;5038788;28;20025;-92
2021/11/01 01:53:36;;;;;;;8.88;6.45;;;;;;;;;;5068805;28;20049;-90
2021/11/01 01:56:04;;;;;;;7.88;6.20;;;;;;;;;;5047140;28;20618;-91
2021/11/01 01:58:32;;;;;;;8.07;6.03;;;;;;;;;;5055110;28;20681;-91
2021/11/01 02:01:12;;;;;;;8.48;6.45;;;;;;;;;;5048373;28;20025;-91
2021/11/01 02:03:40;;;;;;;8.00;6.13;;;;;;;;;;5044020;28;20246;-91
2021/11/01 02:06:10;;;;;;;7.95;6.15;;;;;;;;;;5036076;28;20044;-90
2021/11/01 02:08:45;;;;;;;8.45;6.70;;;;;;;;;;5054066;28;20087;-91
2021/11/01 02:11:15;;;;;;;8.02;6.10;;;;;;;;;;5049909;28;20112;-92
2021/11/01 02:13:44;;;;;;;8.60;6.32;;;;;;;;;;5031291;28;20033;-91
2021/11/01 02:16:15;;;;;;;7.85;5.80;;;;;;;;;;5054114;28;20041;-92
2021/11/01 02:18:44;;;;;;;8.07;6.43;;;;;;;;;;5035868;28;20036;-90
2021/11/01 02:21:17;;;;;;;10.13;6.05;;;;;;;;;;5051442;28;20377;-91
2021/11/01 02:23:44;;;;;;;7.60;5.95;;;;;;;;;;5048415;28;20041;-91
2021/11/01 02:26:13;;;;;;;7.18;5.50;;;;;;;;;;5054939;28;20029;-88
2021/11/01 02:28:40;;;;;;;7.10;5.68;;;;;;;;;;5049296;28;20079;-90
2021/11/01 02:31:09;;;;;;;8.90;6.13;;;;;;;;;;5052897;28;20133;-90
2021/11/01 02:33:35;;;;;;;8.68;6.25;;;;;;;;;;5057125;28;20025;-90
2021/11/01 02:36:04;;;;;;;8.57;6.30;;;;;;;;;;5053660;28;20032;-92
2021/11/01 02:38:33;;;;;;;8.27;6.28;;;;;;;;;;5047560;28;21106;-91
2021/11/01 02:41:04;;;;;;;7.45;6.03;;;;;;;;;;5053898;28;20037;-91
2021/11/01 02:43:31;;;;;;;9.27;6.18;;;;;;;;;;5044809;28;20295;-91
2021/11/01 02:45:58;;;;;;;8.13;5.85;;;;;;;;;;5055647;28;20029;-91
2021/11/01 02:48:24;;;;;;;8.10;5.80;;;;;;;;;;5056926;28;20033;-91
2021/11/01 02:50:50;;;;;;;9.02;6.25;;;;;;;;;;5054150;28;20036;-92
2021/11/01 02:53:17;;;;;;;9.23;6.53;;;;;;;;;;5054925;28;20082;-91
2021/11/01 02:55:43;;;;;;;7.60;6.00;;;;;;;;;;5049075;28;20068;-92
2021/11/01 02:58:10;;;;;;;8.85;6.57;;;;;;;;;;5057118;28;20071;-90
2021/11/01 03:00:36;;;;;;;10.48;6.07;;;;;;;;;;5066528;28;20040;-91
2021/11/01 03:03:05;;;;;;;8.20;6.20;;;;;;;;;;5057414;28;20488;-89
2021/11/01 03:05:32;;;;;;;9.43;6.95;;;;;;;;;;5042769;28;20034;-92
2021/11/01 03:07:59;;;;;;;9.88;6.90;;;;;;;;;;5050370;28;20024;-91
2021/11/01 03:10:26;;;;;;;9.45;6.63;;;;;;;;;;5059895;28;20072;-90
2021/11/01 03:12:53;;;;;;;8.27;6.28;;;;;;;;;;5062394;28;20060;-91
2021/11/01 03:15:21;;;;;;;9.43;6.40;;;;;;;;;;5058380;28;20029;-91
2021/11/01 03:18:05;;;;;;;9.30;6.65;;;;;;;;;;5033642;28;20025;-91
2021/11/01 03:20:33;;;;;;;8.57;6.60;;;;;;;;;;5051912;28;20025;-92
2021/11/01 03:23:04;;;;;;;9.07;6.18;;;;;;;;;;5040578;28;20079;-92
2021/11/01 03:25:33;;;;;;;8.18;5.30;;;;;;;;;;5045380;28;20092;-91
2021/11/01 03:28:01;;;;;;;7.30;5.80;;;;;;;;;;5050243;28;20111;-90
2021/11/01 03:30:28;;;;;;;9.10;6.57;;;;;;;;;;5045673;28;20574;-90
2021/11/01 03:32:55;;;;;;;8.38;6.00;;;;;;;;;;5073969;28;20031;-90
2021/11/01 03:35:24;;;;;;;8.23;6.43;;;;;;;;;;5049434;28;20030;-92
2021/11/01 03:37:53;;;;;;;8.63;6.18;;;;;;;;;;5050785;28;20472;-90
2021/11/01 03:40:20;;;;;;;8.18;5.70;;;;;;;;;;5052189;28;20502;-91
2021/11/01 03:42:48;;;;;;;8.88;6.15;;;;;;;;;;5033917;28;20025;-91
2021/11/01 03:45:14;;;;;;;8.15;6.13;;;;;;;;;;5051234;28;20400;-91
2021/11/01 03:47:47;;;;;;;8.45;6.45;;;;;;;;;;5044962;28;20026;-92
2021/11/01 03:50:41;;;;;;;7.47;5.75;;;;;;;;;;5046501;28;20033;-90
2021/11/01 03:53:01;;;;;;;8.07;6.10;;;;;;;;;;5051383;28;20095;-92
2021/11/01 03:55:30;;;;;;;9.05;6.15;;;;;;;;;;5048807;28;20041;-89
2021/11/01 03:58:01;;;;;;;9.05;5.95;;;;;;;;;;5044647;28;20539;-92
2021/11/01 04:00:29;;;;;;;8.60;6.15;;;;;;;;;;5039273;28;20082;-91
2021/11/01 04:02:55;;;;;;;7.90;5.88;;;;;;;;;;5052873;28;20043;-92
2021/11/01 04:05:22;;;;;;;9.48;6.57;;;;;;;;;;5049179;28;20040;-91
2021/11/01 04:07:49;;;;;;;7.60;5.95;;;;;;;;;;5046031;28;20530;-91
2021/11/01 04:10:15;;;;;;;10.50;7.05;;;;;;;;;;5045118;28;20071;-90
2021/11/01 04:12:42;;;;;;;7.72;5.90;;;;;;;;;;5051833;28;20094;-92
2021/11/01 04:15:28;;;;;;;8.52;6.15;;;;;;;;;;5046916;28;20102;-89
2021/11/01 04:17:58;;;;;;;8.98;6.75;;;;;;;;;;5049288;28;20094;-90
2021/11/01 04:23:03;;;;;;;9.55;6.78;;;;;;;;;;5047789;28;20060;-91
2021/11/01 04:25:31;;;;;;;7.32;5.70;;;;;;;;;;5042516;28;20033;-90
2021/11/01 04:27:59;;;;;;;8.95;6.55;;;;;;;;;;5046420;28;20091;-90
2021/11/01 04:30:29;;;;;;;9.73;6.65;;;;;;;;;;5047795;28;20115;-90
2021/11/01 04:33:00;;;;;;;8.48;6.80;;;;;;;;;;5038508;28;20029;-89
2021/11/01 04:35:29;;;;;;;8.90;6.60;;;;;;;;;;5039523;28;20052;-90
2021/11/01 04:38:29;;;;;;;8.35;6.18;;;;;;;;;;5046972;28;20025;-91
2021/11/01 04:54:03;;;;;;;9.60;6.70;;;;;;;;;;5052247;28;20099;-91
2021/11/01 04:56:30;;;;;;;8.57;6.32;;;;;;;;;;5043594;28;20037;-89
2021/11/01 04:58:57;;;;;;;8.30;6.05;;;;;;;;;;5047438;28;20446;-92
2021/11/01 05:01:33;;;;;;;8.88;6.53;;;;;;;;;;5040726;28;20079;-90
2021/11/01 05:04:05;;;;;;;9.30;6.60;;;;;;;;;;5048421;28;20028;-90
2021/11/01 05:06:32;;;;;;;8.27;5.90;;;;;;;;;;5030111;28;20017;-93
2021/11/01 05:09:06;;;;;;;8.77;6.45;;;;;;;;;;5044666;28;20064;-91
2021/11/01 05:11:47;;;;;;;11.70;6.60;;;;;;;;;;5051524;28;20021;-90
2021/11/01 05:14:15;;;;;;;;;;;;;;;;;;5025963;28;20033;-92
2021/11/01 05:19:30;;;;;;;8.25;6.07;;;;;;;;;;5042348;28;20079;-91
2021/11/01 05:22:15;;;;;;;8.88;6.80;;;;;;;;;;5052470;28;20083;-91
2021/11/01 05:24:55;;;;;;;9.00;6.65;;;;;;;;;;5041442;28;20392;-90
2021/11/01 05:27:36;;;;;;;9.35;6.57;;;;;;;;;;5044029;28;20025;-90
2021/11/01 05:30:07;;;;;;;9.25;6.60;;;;;;;;;;5051887;28;20025;-94
2021/11/01 05:32:34;;;;;;;9.35;6.20;;;;;;;;;;5041090;28;20033;-91
2021/11/01 05:35:00;;;;;;;9.23;6.85;;;;;;;;;;5042204;28;20029;-91
2021/11/01 05:37:27;;;;;;;8.00;6.30;;;;;;;;;;5047538;28;20029;-90
2021/11/01 05:39:53;;;;;;;8.50;5.85;;;;;;;;;;5038828;28;20385;-91
2021/11/01 05:42:20;;;;;;;9.20;6.97;;;;;;;;;;5044221;28;20037;-89
2021/11/01 05:44:46;;;;;;;10.60;6.88;;;;;;;;;;5039156;28;20053;-91
2021/11/01 05:47:12;;;;;;;9.02;6.50;;;;;;;;;;5047171;28;20033;-89
2021/11/01 05:49:39;;;;;;;9.07;6.68;;;;;;;;;;5044243;28;20033;-91
2021/11/01 05:52:15;;;;;;;9.13;7.03;;;;;;;;;;5041888;28;20037;-85
2021/11/01 05:54:41;;;;;;;9.25;6.43;;;;;;;;;;5051214;28;20041;-90
2021/11/01 05:57:33;;;;;;;8.75;6.35;;;;;;;;;;5046630;28;20105;-90
2021/11/01 06:03:02;;;;;;;9.98;6.50;;;;;;;;;;5050547;28;19996;-90
2021/11/01 06:06:00;;;;;;;10.07;7.18;;;;;;;;;;5042321;28;20033;-90
2021/11/01 06:08:39;;;;;;;8.02;6.70;;;;;;;;;;5036853;28;20079;-89
2021/11/01 06:13:55;;;;;;;8.13;6.22;;;;;;;;;;5047450;28;20021;-91
2021/11/01 06:16:22;;;;;;;8.38;6.13;;;;;;;;;;5051283;28;20037;-90
2021/11/01 06:18:49;;;;;;;9.75;6.95;;;;;;;;;;5039697;28;20048;-91
2021/11/01 06:21:16;;;;;;;8.45;6.32;;;;;;;;;;5047441;28;20080;-91
2021/11/01 06:23:55;;;;;;;11.45;7.30;;;;;;;;;;5045100;28;20033;-90
2021/11/01 06:26:29;;;;;;;9.93;6.50;;;;;;;;;;4997494;28;20559;-90
2021/11/01 06:29:05;;;;;;;8.80;6.15;;;;;;;;;;5032588;28;20063;-92
2021/11/01 06:31:37;;;;;;;11.57;7.00;;;;;;;;;;5054522;28;20176;-91
2021/11/01 06:42:34;;;;;;;8.25;6.53;;;;;;;;;;5029974;28;20025;-90
2021/11/01 06:45:11;;;;;;;9.60;7.22;;;;;;;;;;5041839;28;20033;-91
2021/11/01 07:20:42;;;;;;;8.70;6.60;;;;;;;;;;4991034;28;20027;-90
2021/11/01 08:26:28;;;;;;;10.32;8.07;;;;;;;;;;5046212;28;20090;-90
2021/11/01 08:37:23;;;;;;;10.20;7.20;;;;;;;;;;5039175;28;20030;-93
2021/11/01 08:50:27;;;;;;;10.65;7.40;;;;;;;;;;5041702;28;20090;-91
2021/11/01 09:11:48;;;;;;;8.20;6.47;;;;;;;;;;5045099;28;20075;-91
2021/11/01 09:22:20;;;;;;;10.95;7.00;;;;;;;;;;5047499;28;20071;-90
2021/11/01 09:24:51;;;;;;;10.02;7.85;;;;;;;;;;5040924;28;20616;-92
2021/11/01 09:27:24;;;;;;;9.07;7.05;;;;;;;;;;5040505;28;20081;-92
2021/11/01 09:43:43;;;;;;;9.90;7.45;;;;;;;;;;4990817;28;20037;-90
2021/11/01 09:46:10;;;;;;;11.07;7.30;;;;;;;;;;4990547;28;20089;-92
2021/11/01 09:48:40;;;;;;;9.85;7.28;;;;;;;;;;5010454;28;20033;-90
2021/11/01 09:51:07;;;;;;;9.75;7.20;;;;;;;;;;5050441;28;20101;-87
2021/11/01 09:53:40;;;;;;;10.30;6.88;;;;;;;;;;5049371;28;20028;-91
2021/11/01 09:56:19;;;;;;;10.07;7.35;;;;;;;;;;5044451;28;20504;-85
2021/11/01 10:01:32;;;;;;;10.32;6.85;;;;;;;;;;5042974;28;21214;-92
2021/11/01 10:03:58;;;;;;;9.73;7.00;;;;;;;;;;5042387;28;20030;-91
2021/11/01 10:06:27;;;;;;;8.93;7.05;;;;;;;;;;5033306;28;20045;-91
2021/11/01 10:08:54;;;;;;;9.05;7.07;;;;;;;;;;5051655;28;20068;-91
2021/11/01 10:11:25;;;;;;;8.40;6.45;;;;;;;;;;5055542;28;20059;-91
2021/11/01 10:13:56;;;;;;;8.50;7.05;;;;;;;;;;5054047;28;20056;-91
2021/11/01 10:19:08;;;;;;;11.07;6.68;;;;;;;;;;5066463;28;19917;-89
2021/11/01 10:21:35;;;;;;;8.93;6.90;;;;;;;;;;5059474;28;20033;-93
2021/11/01 10:24:01;;;;;;;9.88;7.07;;;;;;;;;;5033438;28;20047;-93
2021/11/01 10:26:31;;;;;;;9.98;6.63;;;;;;;;;;5056054;28;20388;-92
2021/11/01 10:29:06;;;;;;;8.43;6.60;;;;;;;;;;5054387;28;20025;-91
2021/11/01 10:31:42;;;;;;;8.75;6.65;;;;;;;;;;5048816;28;20029;-93
2021/11/01 10:34:10;;;;;;;9.52;6.28;;;;;;;;;;5034718;28;20033;-91
2021/11/01 10:36:38;;;;;;;9.48;6.47;;;;;;;;;;5057626;28;20029;-92
2021/11/01 10:39:11;;;;;;;10.10;6.95;;;;;;;;;;5052842;28;20063;-94
2021/11/01 10:41:49;;;;;;;10.50;6.95;;;;;;;;;;5064167;28;20991;-94
2021/11/01 10:47:33;;;;;;;8.82;5.80;;;;;;;;;;5080980;28;20067;-87
2021/11/01 10:58:44;;;;;;;8.25;6.30;;;;;;;;;;5071449;28;20052;-95
2021/11/01 11:14:45;;;;;;;7.55;5.72;;;;;;;;;;5068886;28;20036;-93
2021/11/01 11:17:27;;;;;;;7.93;5.82;;;;;;;;;;5055301;28;20060;-94
2021/11/01 11:28:43;;;;;;;7.93;5.35;;;;;;;;;;5050858;28;20029;-81
2021/11/01 11:37:11;;;;;;;8.18;5.28;;;;;;;;;;5067652;28;20075;-96
2021/11/01 11:37:41;;;;;;;7.95;5.28;;;;;;;;;;5056069;28;20161;-94
2021/11/01 11:42:57;;;;;;;7.85;5.25;;;;;;;;;;5066790;28;20033;-95
2021/11/01 11:48:31;;;;;;;7.20;4.78;;;;;;;;;;5057269;28;20033;-92
2021/11/01 11:51:04;;;;;;;7.03;4.80;;;;;;;;;;5068706;28;20041;-93
2021/11/01 11:53:32;;;;;;;7.63;5.13;;;;;;;;;;5038542;28;20057;-94
2021/11/01 11:56:05;;;;;;;6.82;4.25;;;;;;;;;;5044886;28;20112;-93
2021/11/01 11:58:39;;;;;;;8.43;4.93;;;;;;;;;;5042205;28;20041;-94
2021/11/01 12:01:28;;;;;;;7.95;4.50;;;;;;;;;;5056894;28;20033;-94
2021/11/01 12:03:56;;;;;;;8.15;4.88;;;;;;;;;;5054514;28;20074;-96
2021/11/01 12:06:44;;;;;;;6.38;4.47;;;;;;;;;;5067314;28;20028;-94
2021/11/01 12:09:15;;;;;;;7.10;4.20;;;;;;;;;;5051863;28;20021;-92
2021/11/01 12:12:18;;;;;;;7.63;4.22;;;;;;;;;;5032961;28;20051;-94
2021/11/01 12:17:19;;;;;;;7.30;4.35;;;;;;;;;;5054536;28;20017;-95
2021/11/01 12:19:46;;;;;;;4.60;3.15;;;;;;;;;;5052937;28;20050;-94
2021/11/01 12:22:22;;;;;;;6.95;3.90;;;;;;;;;;5071120;28;20060;-95
2021/11/01 12:24:51;;;;;;;5.32;3.92;;;;;;;;;;5039555;28;20653;-94
2021/11/01 12:27:18;;;;;;;6.38;3.83;;;;;;;;;;5055133;28;20025;-94
2021/11/01 12:29:48;;;;;;;6.47;3.90;;;;;;;;;;5070412;28;20048;-95
2021/11/01 12:32:23;;;;;;;6.20;4.10;;;;;;;;;;5078877;28;20101;-93
2021/11/01 12:35:19;;;;;;;4.75;3.38;;;;;;;;;;5075277;28;20037;-93
2021/11/01 12:37:47;;;;;;;5.57;3.50;;;;;;;;;;5062005;28;20427;-92
2021/11/01 12:43:10;;;;;;;5.60;3.42;;;;;;;;;;5062520;28;20024;-95
2021/11/01 12:49:04;;;;;;;5.10;3.50;;;;;;;;;;5024977;28;20030;-94
2021/11/01 12:59:46;;;;;;;6.70;3.50;;;;;;;;;;5061552;28;20021;-93
2021/11/01 13:02:16;;;;;;;4.20;2.90;;;;;;;;;;5066797;28;20029;-93
2021/11/01 13:04:48;;;;;;;3.50;2.70;;;;;;;;;;5027472;28;20048;-95
2021/11/01 13:07:30;;;;;;;5.85;3.10;;;;;;;;;;5053419;28;20040;-92
2021/11/01 13:12:52;;;;;;;4.20;2.55;;;;;;;;;;5059679;28;20017;-93
2021/11/01 13:18:22;;;;;;;5.78;2.80;;;;;;;;;;5066363;28;20036;-94
2021/11/01 13:20:58;;;;;;;4.45;2.70;;;;;;;;;;5057100;28;20048;-93
2021/11/01 13:23:28;;;;;;;6.38;3.10;;;;;;;;;;5046744;28;20029;-93
2021/11/01 13:28:48;;;;;;;4.72;2.92;;;;;;;;;;5051917;28;20056;-95
2021/11/01 13:34:47;;;;;;;4.60;2.53;;;;;;;;;;5061442;28;20021;-94
2021/11/01 13:37:24;;;;;;;4.13;2.80;;;;;;;;;;5081592;28;20108;-93
2021/11/01 13:40:06;;;;;;;6.55;3.20;;;;;;;;;;5061711;28;20064;-94
2021/11/01 13:42:33;;;;;;;4.72;2.45;;;;;;;;;;5058907;28;20025;-94
2021/11/01 13:45:10;;;;;;;4.88;2.80;;;;;;;;;;5058811;28;20041;-92
2021/11/01 13:47:44;;;;;;;4.22;2.58;;;;;;;;;;5050123;28;20052;-93
2021/11/01 13:50:11;;;;;;;4.30;2.50;;;;;;;;;;5031524;28;20033;-92
2021/11/01 13:52:40;;;;;;;4.40;2.45;;;;;;;;;;5054592;28;20060;-93
2021/11/01 13:55:12;;;;;;;4.43;2.60;;;;;;;;;;5052411;28;20051;-93
2021/11/01 13:58:17;;;;;;;4.53;2.60;;;;;;;;;;5059329;28;20130;-94
2021/11/01 14:14:10;;;;;;;3.65;2.28;;;;;;;;;;5069982;28;20016;-93
2021/11/01 14:19:24;;;;;;;3.65;2.10;;;;;;;;;;5068997;28;20009;-93
2021/11/01 14:33:03;;;;;;;4.10;1.98;;;;;;;;;;5055202;28;20659;-93
2021/11/01 15:12:13;;;;;;;5.32;1.75;;;;;;;;;;5064605;28;20086;-94
2021/11/01 15:17:05;;;;;;;4.32;1.70;;;;;;;;;;5057491;28;20431;-93
2021/11/01 15:19:51;;;;;;;3.65;1.73;;;;;;;;;;5024157;28;20041;-94
2021/11/01 15:22:44;;;;;;;3.03;1.80;;;;;;;;;;5052745;28;20470;-92
2021/11/01 15:41:34;;;;;;;3.03;1.65;;;;;;;;;;5067631;28;20027;-93
2021/11/01 16:17:19;;;;;;;2.47;1.10;;;;;;;;;;5066635;28;20029;-94
2021/11/01 16:19:51;;;;;;;3.78;1.10;;;;;;;;;;5056081;28;20030;-94
2021/11/01 16:22:18;;;;;;;2.28;1.30;;;;;;;;;;5060420;28;20025;-94
2021/11/01 16:24:45;;;;;;;3.63;1.42;;;;;;;;;;5071026;28;20086;-93
2021/11/01 16:27:15;;;;;;;4.47;1.70;;;;;;;;;;5051684;28;20413;-89
2021/11/01 16:30:08;;;;;;;4.35;1.50;;;;;;;;;;5041826;28;20044;-94
2021/11/01 16:32:46;;;;;;;2.58;1.33;;;;;;;;;;5062421;28;20090;-94
2021/11/01 16:35:19;;;;;;;3.17;1.35;;;;;;;;;;5058612;28;20030;-93
2021/11/01 16:37:57;;;;;;;3.40;1.40;;;;;;;;;;5029871;28;20060;-94
2021/11/01 16:40:27;;;;;;;3.72;1.42;;;;;;;;;;5063804;28;20055;-92
2021/11/01 16:42:54;;;;;;;4.47;1.30;;;;;;;;;;5040473;28;20040;-94
2021/11/01 16:45:32;;;;;;;3.97;1.30;;;;;;;;;;5058635;28;20089;-93
2021/11/01 16:48:00;;;;;;;3.80;1.33;;;;;;;;;;5057448;28;20029;-94
2021/11/01 16:50:27;;;;;;;3.38;1.30;;;;;;;;;;5056781;28;20108;-94
2021/11/01 16:52:54;;;;;;;5.32;1.42;;;;;;;;;;5063855;28;20108;-94
2021/11/01 16:55:24;;;;;;;2.97;1.48;;;;;;;;;;5064476;28;20083;-94
2021/11/01 16:57:55;;;;;;;3.83;1.30;;;;;;;;;;5032098;28;20052;-93
2021/11/01 17:00:35;;;;;;;3.53;1.50;;;;;;;;;;5061100;28;20029;-94
2021/11/01 17:03:14;;;;;;;2.88;1.33;;;;;;;;;;5067035;28;20018;-94
2021/11/01 17:24:36;;;;;;;2.47;1.13;;;;;;;;;;5059211;28;20072;-93
2021/11/01 17:30:31;;;;;;;3.33;1.38;;;;;;;;;;5070666;28;20025;-95
2021/11/01 18:38:29;;;;;;;3.70;1.30;;;;;;;;;;5068901;28;20029;-94
2021/11/01 18:41:08;;;;;;;3.80;1.30;;;;;;;;;;5062953;28;20025;-93
2021/11/01 18:51:55;;;;;;;3.00;1.20;;;;;;;;;;5066221;28;20029;-93
2021/11/01 18:54:24;;;;;;;3.13;1.13;;;;;;;;;;5067970;28;20040;-92
2021/11/01 18:56:52;;;;;;;4.22;1.20;;;;;;;;;;5045741;28;20037;-94
2021/11/01 18:59:22;;;;;;;2.42;1.20;;;;;;;;;;5064506;28;20071;-92
2021/11/01 19:01:58;;;;;;;2.58;0.93;;;;;;;;;;5048995;28;20133;-93
2021/11/01 19:04:31;;;;;;;3.20;1.17;;;;;;;;;;5048745;28;20051;-93
2021/11/01 20:05:23;;;;;;;3.25;1.10;;;;;;;;;;5008693;28;20046;-94
2021/11/01 20:13:45;;;;;;;4.15;1.10;;;;;;;;;;5056857;28;20178;-94
2021/11/01 21:27:48;;;;;;;3.35;1.13;;;;;;;;;;5057872;28;20037;-95
2021/11/01 21:30:15;;;;;;;2.67;1.00;;;;;;;;;;5063815;28;20025;-94
2021/11/01 21:32:42;;;;;;;2.92;1.00;;;;;;;;;;5066809;28;20029;-95
2021/11/01 21:35:13;;;;;;;2.33;0.80;;;;;;;;;;5060062;28;20037;-86
2021/11/01 21:37:40;;;;;;;1.50;0.88;;;;;;;;;;5064693;28;20112;-93
2021/11/01 21:40:09;;;;;;;3.00;0.90;;;;;;;;;;5058457;28;20151;-95
2021/11/01 21:42:36;;;;;;;2.55;0.73;;;;;;;;;;5062706;28;21079;-92
2021/11/01 21:45:03;;;;;;;1.88;0.90;;;;;;;;;;5063771;28;20036;-93
2021/11/01 21:47:29;;;;;;;2.00;0.80;;;;;;;;;;5060406;28;20032;-94
2021/11/01 21:49:57;;;;;;;1.92;0.70;;;;;;;;;;5056884;28;20037;-94
2021/11/01 21:52:24;;;;;;;3.20;1.15;;;;;;;;;;5060820;28;20045;-94
2021/11/01 21:54:53;;;;;;;2.35;0.73;;;;;;;;;;5010070;28;20053;-93
2021/11/01 22:16:46;;;;;;;2.35;0.93;;;;;;;;;;5010412;28;20044;-94
2021/11/01 22:19:39;;;;;;;2.67;0.90;;;;;;;;;;5044662;28;20025;-88
2021/11/01 22:40:29;;;;;;;1.88;0.90;;;;;;;;;;5068862;28;20016;-94
2021/11/01 22:45:52;;;;;;;1.70;0.80;;;;;;;;;;5071085;28;20017;-93
2021/11/01 22:58:59;;;;;;;3.03;0.82;;;;;;;;;;5045454;28;20087;-93
2021/11/01 23:01:35;;;;;;;3.63;1.23;;;;;;;;;;5073287;28;20040;-91
2021/11/01 23:33:54;;;;;;;2.50;0.85;;;;;;;;;;5058891;28;20117;-95
2021/11/01 23:36:23;;;;;;;3.15;1.00;;;;;;;;;;5058721;28;20047;-94
2021/11/01 23:38:51;;;;;;;2.00;0.90;;;;;;;;;;5062643;28;20048;-94
2021/11/01 23:41:20;;;;;;;2.95;0.80;;;;;;;;;;5043200;28;20048;-93
2021/11/01 23:43:47;;;;;;;2.25;0.70;;;;;;;;;;5057640;28;20029;-94
2021/11/01 23:46:25;;;;;;;1.27;0.75;;;;;;;;;;5065319;28;20081;-93
2021/11/01 23:48:54;;;;;;;3.08;0.90;;;;;;;;;;5066992;28;20039;-94
2021/11/01 23:51:35;;;;;;;1.45;0.80;;;;;;;;;;5063249;28;20075;-93
2021/11/01 23:56:48;;;;;;;2.70;1.10;;;;;;;;;;5057717;28;20027;-94
2021/11/01 23:59:15;;;;;;;2.20;0.93;;;;;;;;;;5058256;28;20040;-90
